sensor_id;sensor_type;location;lat;lon;timestamp;temperature;humidity
16408;DHT22;8313;49.894;8.084;2023-09-19T00:00:34;17.90;99.90
16408;DHT22;8313;49.894;8.084;2023-09-19T00:03:01;17.90;99.90
16408;DHT22;8313;49.894;8.084;2023-09-19T00:05:28;17.80;99.90
16408;DHT22;8313;49.894;8.084;2023-09-19T00:07:56;18.00;99.90
16408;DHT22;8313;49.894;8.084;2023-09-19T00:10:24;18.10;99.90
16408;DHT22;8313;49.894;8.084;2023-09-19T00:12:51;18.10;99.90
16408;DHT22;8313;49.894;8.084;2023-09-19T00:15:18;18.20;99.90
16408;DHT22;8313;49.894;8.084;2023-09-19T00:17:44;18.10;99.90
16408;DHT22;8313;49.894;8.084;2023-09-19T00:20:11;18.10;99.90
16408;DHT22;8313;49.894;8.084;2023-09-19T00:22:41;18.00;99.90
16408;DHT22;8313;49.894;8.084;2023-09-19T00:25:10;17.90;99.90
16408;DHT22;8313;49.894;8.084;2023-09-19T00:27:38;17.90;99.90
16408;DHT22;8313;49.894;8.084;2023-09-19T00:30:08;17.90;99.90
16408;DHT22;8313;49.894;8.084;2023-09-19T00:32:40;18.00;99.90
16408;DHT22;8313;49.894;8.084;2023-09-19T00:35:06;17.90;99.90
16408;DHT22;8313;49.894;8.084;2023-09-19T00:37:34;17.90;99.90
16408;DHT22;8313;49.894;8.084;2023-09-19T00:40:02;17.70;99.90
16408;DHT22;8313;49.894;8.084;2023-09-19T00:42:28;17.70;99.90
16408;DHT22;8313;49.894;8.084;2023-09-19T00:44:54;17.70;99.90
16408;DHT22;8313;49.894;8.084;2023-09-19T00:47:20;17.70;99.90
16408;DHT22;8313;49.894;8.084;2023-09-19T00:49:46;17.70;99.90
16408;DHT22;8313;49.894;8.084;2023-09-19T00:52:15;17.80;99.90
16408;DHT22;8313;49.894;8.084;2023-09-19T00:54:41;17.70;99.90
16408;DHT22;8313;49.894;8.084;2023-09-19T00:57:07;17.70;99.90
16408;DHT22;8313;49.894;8.084;2023-09-19T00:59:34;17.80;99.90
16408;DHT22;8313;49.894;8.084;2023-09-19T01:02:02;17.70;99.90
16408;DHT22;8313;49.894;8.084;2023-09-19T01:04:31;17.60;99.90
16408;DHT22;8313;49.894;8.084;2023-09-19T01:06:57;17.60;99.90
16408;DHT22;8313;49.894;8.084;2023-09-19T01:09:23;17.60;99.90
16408;DHT22;8313;49.894;8.084;2023-09-19T01:11:50;17.50;99.90
16408;DHT22;8313;49.894;8.084;2023-09-19T01:17:16;17.40;99.90
16408;DHT22;8313;49.894;8.084;2023-09-19T01:20:03;17.30;99.90
16408;DHT22;8313;49.894;8.084;2023-09-19T01:30:57;17.20;99.90
16408;DHT22;8313;49.894;8.084;2023-09-19T01:33:27;17.20;99.90
16408;DHT22;8313;49.894;8.084;2023-09-19T01:35:53;17.40;99.90
16408;DHT22;8313;49.894;8.084;2023-09-19T01:38:19;17.50;99.90
16408;DHT22;8313;49.894;8.084;2023-09-19T01:41:03;17.50;99.90
16408;DHT22;8313;49.894;8.084;2023-09-19T01:43:37;17.50;99.90
16408;DHT22;8313;49.894;8.084;2023-09-19T01:46:09;17.50;99.90
16408;DHT22;8313;49.894;8.084;2023-09-19T01:51:11;17.60;99.90
16408;DHT22;8313;49.894;8.084;2023-09-19T01:54:00;17.40;99.90
16408;DHT22;8313;49.894;8.084;2023-09-19T01:59:08;17.10;99.90
16408;DHT22;8313;49.894;8.084;2023-09-19T02:01:37;17.00;99.90
16408;DHT22;8313;49.894;8.084;2023-09-19T02:04:03;17.00;99.90
16408;DHT22;8313;49.894;8.084;2023-09-19T02:06:31;16.90;99.90
16408;DHT22;8313;49.894;8.084;2023-09-19T02:08:57;17.00;99.90
16408;DHT22;8313;49.894;8.084;2023-09-19T02:11:24;17.00;99.90
16408;DHT22;8313;49.894;8.084;2023-09-19T02:14:03;17.00;99.90
16408;DHT22;8313;49.894;8.084;2023-09-19T02:16:30;17.00;99.90
16408;DHT22;8313;49.894;8.084;2023-09-19T02:18:55;16.90;99.90
16408;DHT22;8313;49.894;8.084;2023-09-19T02:21:21;17.00;99.90
16408;DHT22;8313;49.894;8.084;2023-09-19T02:23:47;17.10;99.90
16408;DHT22;8313;49.894;8.084;2023-09-19T02:26:13;17.10;99.90
16408;DHT22;8313;49.894;8.084;2023-09-19T02:28:40;17.20;99.90
16408;DHT22;8313;49.894;8.084;2023-09-19T02:31:08;17.20;99.90
16408;DHT22;8313;49.894;8.084;2023-09-19T02:33:33;17.00;99.90
16408;DHT22;8313;49.894;8.084;2023-09-19T02:36:00;17.10;99.90
16408;DHT22;8313;49.894;8.084;2023-09-19T02:38:27;17.20;99.90
16408;DHT22;8313;49.894;8.084;2023-09-19T02:40:53;17.20;99.90
16408;DHT22;8313;49.894;8.084;2023-09-19T02:43:21;17.20;99.90
16408;DHT22;8313;49.894;8.084;2023-09-19T02:45:48;17.20;99.90
16408;DHT22;8313;49.894;8.084;2023-09-19T02:48:19;17.30;99.90
16408;DHT22;8313;49.894;8.084;2023-09-19T02:50:49;17.20;99.90
16408;DHT22;8313;49.894;8.084;2023-09-19T02:53:14;17.20;99.90
16408;DHT22;8313;49.894;8.084;2023-09-19T02:55:40;17.00;99.90
16408;DHT22;8313;49.894;8.084;2023-09-19T02:58:07;17.00;99.90
16408;DHT22;8313;49.894;8.084;2023-09-19T03:00:40;16.90;99.90
16408;DHT22;8313;49.894;8.084;2023-09-19T03:03:08;17.00;99.90
16408;DHT22;8313;49.894;8.084;2023-09-19T03:05:34;17.20;99.90
16408;DHT22;8313;49.894;8.084;2023-09-19T03:08:00;17.10;99.90
16408;DHT22;8313;49.894;8.084;2023-09-19T03:10:27;17.00;99.90
16408;DHT22;8313;49.894;8.084;2023-09-19T03:12:54;16.90;99.90
16408;DHT22;8313;49.894;8.084;2023-09-19T03:15:20;16.90;99.90
16408;DHT22;8313;49.894;8.084;2023-09-19T03:17:50;16.90;99.90
16408;DHT22;8313;49.894;8.084;2023-09-19T03:20:20;16.90;99.90
16408;DHT22;8313;49.894;8.084;2023-09-19T03:22:47;16.90;99.90
16408;DHT22;8313;49.894;8.084;2023-09-19T03:25:13;16.70;99.90
16408;DHT22;8313;49.894;8.084;2023-09-19T03:27:42;16.70;99.90
16408;DHT22;8313;49.894;8.084;2023-09-19T03:30:08;16.80;99.90
16408;DHT22;8313;49.894;8.084;2023-09-19T03:32:44;16.70;99.90
16408;DHT22;8313;49.894;8.084;2023-09-19T03:35:09;16.60;99.90
16408;DHT22;8313;49.894;8.084;2023-09-19T03:37:42;16.50;99.90
16408;DHT22;8313;49.894;8.084;2023-09-19T03:40:09;16.70;99.90
16408;DHT22;8313;49.894;8.084;2023-09-19T03:42:40;16.70;99.90
16408;DHT22;8313;49.894;8.084;2023-09-19T03:45:10;16.80;99.90
16408;DHT22;8313;49.894;8.084;2023-09-19T03:47:46;16.90;99.90
16408;DHT22;8313;49.894;8.084;2023-09-19T03:50:17;16.90;99.90
16408;DHT22;8313;49.894;8.084;2023-09-19T03:52:44;16.90;99.90
16408;DHT22;8313;49.894;8.084;2023-09-19T03:55:10;17.00;99.90
16408;DHT22;8313;49.894;8.084;2023-09-19T03:57:37;17.00;99.90
16408;DHT22;8313;49.894;8.084;2023-09-19T04:00:04;16.90;99.90
16408;DHT22;8313;49.894;8.084;2023-09-19T04:02:40;17.00;99.90
16408;DHT22;8313;49.894;8.084;2023-09-19T04:05:06;17.00;99.90
16408;DHT22;8313;49.894;8.084;2023-09-19T04:07:32;17.00;99.90
16408;DHT22;8313;49.894;8.084;2023-09-19T04:09:59;17.10;99.90
16408;DHT22;8313;49.894;8.084;2023-09-19T04:12:26;17.10;99.90
16408;DHT22;8313;49.894;8.084;2023-09-19T04:14:52;17.00;99.90
16408;DHT22;8313;49.894;8.084;2023-09-19T04:17:18;17.00;99.90
16408;DHT22;8313;49.894;8.084;2023-09-19T04:19:44;17.00;99.90
16408;DHT22;8313;49.894;8.084;2023-09-19T04:22:11;17.10;99.90
16408;DHT22;8313;49.894;8.084;2023-09-19T04:24:38;17.10;99.90
16408;DHT22;8313;49.894;8.084;2023-09-19T04:27:04;17.00;99.90
16408;DHT22;8313;49.894;8.084;2023-09-19T04:29:30;17.00;99.90
16408;DHT22;8313;49.894;8.084;2023-09-19T04:31:56;17.10;99.90
16408;DHT22;8313;49.894;8.084;2023-09-19T04:34:25;17.10;99.90
16408;DHT22;8313;49.894;8.084;2023-09-19T04:36:51;17.10;99.90
16408;DHT22;8313;49.894;8.084;2023-09-19T04:39:16;17.20;99.90
16408;DHT22;8313;49.894;8.084;2023-09-19T04:41:43;17.20;99.90
16408;DHT22;8313;49.894;8.084;2023-09-19T04:44:10;17.20;99.90
16408;DHT22;8313;49.894;8.084;2023-09-19T04:46:36;17.20;99.90
16408;DHT22;8313;49.894;8.084;2023-09-19T04:49:01;17.20;99.90
16408;DHT22;8313;49.894;8.084;2023-09-19T04:51:30;17.20;99.90
16408;DHT22;8313;49.894;8.084;2023-09-19T04:54:00;17.00;99.90
16408;DHT22;8313;49.894;8.084;2023-09-19T04:56:26;16.90;99.90
16408;DHT22;8313;49.894;8.084;2023-09-19T04:58:54;16.80;99.90
16408;DHT22;8313;49.894;8.084;2023-09-19T05:01:19;16.80;99.90
16408;DHT22;8313;49.894;8.084;2023-09-19T05:03:48;16.80;99.90
16408;DHT22;8313;49.894;8.084;2023-09-19T05:06:23;16.80;99.90
16408;DHT22;8313;49.894;8.084;2023-09-19T05:08:49;16.70;99.90
16408;DHT22;8313;49.894;8.084;2023-09-19T05:11:20;16.70;99.90
16408;DHT22;8313;49.894;8.084;2023-09-19T05:13:47;16.70;99.90
16408;DHT22;8313;49.894;8.084;2023-09-19T05:16:13;16.80;99.90
16408;DHT22;8313;49.894;8.084;2023-09-19T05:18:38;16.80;99.90
16408;DHT22;8313;49.894;8.084;2023-09-19T05:21:05;16.80;99.90
16408;DHT22;8313;49.894;8.084;2023-09-19T05:23:30;16.80;99.90
16408;DHT22;8313;49.894;8.084;2023-09-19T05:25:56;16.80;99.90
16408;DHT22;8313;49.894;8.084;2023-09-19T05:28:25;16.80;99.90
16408;DHT22;8313;49.894;8.084;2023-09-19T05:30:52;16.80;99.90
16408;DHT22;8313;49.894;8.084;2023-09-19T05:33:19;16.90;99.90
16408;DHT22;8313;49.894;8.084;2023-09-19T05:35:45;16.90;99.90
16408;DHT22;8313;49.894;8.084;2023-09-19T05:38:13;16.90;99.90
16408;DHT22;8313;49.894;8.084;2023-09-19T05:40:40;16.90;99.90
16408;DHT22;8313;49.894;8.084;2023-09-19T05:43:08;16.80;99.90
16408;DHT22;8313;49.894;8.084;2023-09-19T05:45:35;16.70;99.90
16408;DHT22;8313;49.894;8.084;2023-09-19T05:48:12;16.60;99.90
16408;DHT22;8313;49.894;8.084;2023-09-19T05:50:42;16.40;99.90
16408;DHT22;8313;49.894;8.084;2023-09-19T05:53:08;16.40;99.90
16408;DHT22;8313;49.894;8.084;2023-09-19T05:55:37;16.40;99.90
16408;DHT22;8313;49.894;8.084;2023-09-19T05:58:03;16.30;99.90
16408;DHT22;8313;49.894;8.084;2023-09-19T06:00:29;16.20;99.90
16408;DHT22;8313;49.894;8.084;2023-09-19T06:02:58;16.20;99.90
16408;DHT22;8313;49.894;8.084;2023-09-19T06:05:25;16.30;99.90
16408;DHT22;8313;49.894;8.084;2023-09-19T06:07:57;16.20;99.90
16408;DHT22;8313;49.894;8.084;2023-09-19T06:10:27;16.30;99.90
16408;DHT22;8313;49.894;8.084;2023-09-19T06:12:54;16.40;99.90
16408;DHT22;8313;49.894;8.084;2023-09-19T06:15:20;16.40;99.90
16408;DHT22;8313;49.894;8.084;2023-09-19T06:17:50;16.30;99.90
16408;DHT22;8313;49.894;8.084;2023-09-19T06:20:16;16.30;99.90
16408;DHT22;8313;49.894;8.084;2023-09-19T06:22:42;16.40;99.90
16408;DHT22;8313;49.894;8.084;2023-09-19T06:25:10;16.50;99.90
16408;DHT22;8313;49.894;8.084;2023-09-19T06:27:45;16.50;99.90
16408;DHT22;8313;49.894;8.084;2023-09-19T06:30:11;16.50;99.90
16408;DHT22;8313;49.894;8.084;2023-09-19T06:32:37;16.50;99.90
16408;DHT22;8313;49.894;8.084;2023-09-19T06:35:03;16.50;99.90
16408;DHT22;8313;49.894;8.084;2023-09-19T06:37:29;16.40;99.90
16408;DHT22;8313;49.894;8.084;2023-09-19T06:39:55;16.40;99.90
16408;DHT22;8313;49.894;8.084;2023-09-19T06:42:22;16.40;99.90
16408;DHT22;8313;49.894;8.084;2023-09-19T06:44:49;16.30;99.90
16408;DHT22;8313;49.894;8.084;2023-09-19T06:47:14;16.40;99.90
16408;DHT22;8313;49.894;8.084;2023-09-19T06:49:41;16.30;99.90
16408;DHT22;8313;49.894;8.084;2023-09-19T06:52:09;16.40;99.90
16408;DHT22;8313;49.894;8.084;2023-09-19T06:54:35;16.20;99.90
16408;DHT22;8313;49.894;8.084;2023-09-19T06:57:01;16.20;99.90
16408;DHT22;8313;49.894;8.084;2023-09-19T06:59:27;16.30;99.90
16408;DHT22;8313;49.894;8.084;2023-09-19T07:01:52;16.40;99.90
16408;DHT22;8313;49.894;8.084;2023-09-19T07:04:18;16.50;99.90
16408;DHT22;8313;49.894;8.084;2023-09-19T07:06:50;16.50;99.90
16408;DHT22;8313;49.894;8.084;2023-09-19T07:09:16;16.40;99.90
16408;DHT22;8313;49.894;8.084;2023-09-19T07:11:43;16.40;99.90
16408;DHT22;8313;49.894;8.084;2023-09-19T07:14:09;16.40;99.90
16408;DHT22;8313;49.894;8.084;2023-09-19T07:16:37;16.40;99.90
16408;DHT22;8313;49.894;8.084;2023-09-19T07:19:04;16.30;99.90
16408;DHT22;8313;49.894;8.084;2023-09-19T07:21:30;16.30;99.90
16408;DHT22;8313;49.894;8.084;2023-09-19T07:23:59;16.30;99.90
16408;DHT22;8313;49.894;8.084;2023-09-19T07:26:26;16.40;99.90
16408;DHT22;8313;49.894;8.084;2023-09-19T07:28:53;16.50;99.90
16408;DHT22;8313;49.894;8.084;2023-09-19T07:31:19;16.50;99.90
16408;DHT22;8313;49.894;8.084;2023-09-19T07:33:45;16.50;99.90
16408;DHT22;8313;49.894;8.084;2023-09-19T07:36:11;16.60;99.90
16408;DHT22;8313;49.894;8.084;2023-09-19T07:38:39;16.70;99.90
16408;DHT22;8313;49.894;8.084;2023-09-19T07:41:05;16.70;99.90
16408;DHT22;8313;49.894;8.084;2023-09-19T07:43:31;16.60;99.90
16408;DHT22;8313;49.894;8.084;2023-09-19T07:45:57;16.60;99.90
16408;DHT22;8313;49.894;8.084;2023-09-19T07:48:23;16.60;99.90
16408;DHT22;8313;49.894;8.084;2023-09-19T07:50:49;16.60;99.90
16408;DHT22;8313;49.894;8.084;2023-09-19T07:53:15;16.70;99.90
16408;DHT22;8313;49.894;8.084;2023-09-19T07:55:43;16.60;99.90
16408;DHT22;8313;49.894;8.084;2023-09-19T07:58:09;16.60;99.90
16408;DHT22;8313;49.894;8.084;2023-09-19T08:00:34;16.60;99.90
16408;DHT22;8313;49.894;8.084;2023-09-19T08:03:01;16.60;99.90
16408;DHT22;8313;49.894;8.084;2023-09-19T08:05:27;16.70;99.90
16408;DHT22;8313;49.894;8.084;2023-09-19T08:07:53;16.70;99.90
16408;DHT22;8313;49.894;8.084;2023-09-19T08:10:19;16.70;99.90
16408;DHT22;8313;49.894;8.084;2023-09-19T08:12:47;16.80;99.90
16408;DHT22;8313;49.894;8.084;2023-09-19T08:15:17;16.70;99.90
16408;DHT22;8313;49.894;8.084;2023-09-19T08:17:45;16.80;99.90
16408;DHT22;8313;49.894;8.084;2023-09-19T08:20:11;16.80;99.90
16408;DHT22;8313;49.894;8.084;2023-09-19T08:22:47;16.90;99.90
16408;DHT22;8313;49.894;8.084;2023-09-19T08:25:15;17.00;99.90
16408;DHT22;8313;49.894;8.084;2023-09-19T08:27:43;17.00;99.90
16408;DHT22;8313;49.894;8.084;2023-09-19T08:30:16;17.00;99.90
16408;DHT22;8313;49.894;8.084;2023-09-19T08:32:43;17.00;99.90
16408;DHT22;8313;49.894;8.084;2023-09-19T08:35:10;17.10;99.90
16408;DHT22;8313;49.894;8.084;2023-09-19T08:37:36;17.10;99.90
16408;DHT22;8313;49.894;8.084;2023-09-19T08:40:02;17.10;99.90
16408;DHT22;8313;49.894;8.084;2023-09-19T08:42:28;17.20;99.90
16408;DHT22;8313;49.894;8.084;2023-09-19T08:44:55;17.20;99.90
16408;DHT22;8313;49.894;8.084;2023-09-19T08:47:34;17.30;99.90
16408;DHT22;8313;49.894;8.084;2023-09-19T08:50:16;17.30;99.90
16408;DHT22;8313;49.894;8.084;2023-09-19T08:52:46;17.40;99.90
16408;DHT22;8313;49.894;8.084;2023-09-19T08:55:14;17.40;99.90
16408;DHT22;8313;49.894;8.084;2023-09-19T08:57:46;17.40;99.90
16408;DHT22;8313;49.894;8.084;2023-09-19T09:00:15;17.40;99.90
16408;DHT22;8313;49.894;8.084;2023-09-19T09:02:47;17.30;99.90
16408;DHT22;8313;49.894;8.084;2023-09-19T09:05:14;17.40;99.90
16408;DHT22;8313;49.894;8.084;2023-09-19T09:07:42;17.40;99.90
16408;DHT22;8313;49.894;8.084;2023-09-19T09:10:09;17.40;99.90
16408;DHT22;8313;49.894;8.084;2023-09-19T09:12:35;17.50;99.90
16408;DHT22;8313;49.894;8.084;2023-09-19T09:15:03;17.50;99.90
16408;DHT22;8313;49.894;8.084;2023-09-19T09:17:29;17.60;99.90
16408;DHT22;8313;49.894;8.084;2023-09-19T09:19:56;17.60;99.90
16408;DHT22;8313;49.894;8.084;2023-09-19T09:22:22;17.70;99.90
16408;DHT22;8313;49.894;8.084;2023-09-19T09:24:55;17.80;99.90
16408;DHT22;8313;49.894;8.084;2023-09-19T09:27:30;17.90;99.90
16408;DHT22;8313;49.894;8.084;2023-09-19T09:29:58;18.10;99.90
16408;DHT22;8313;49.894;8.084;2023-09-19T09:32:30;18.10;99.90
16408;DHT22;8313;49.894;8.084;2023-09-19T09:35:00;18.10;99.90
16408;DHT22;8313;49.894;8.084;2023-09-19T09:37:27;18.10;99.90
16408;DHT22;8313;49.894;8.084;2023-09-19T09:39:57;18.10;99.90
16408;DHT22;8313;49.894;8.084;2023-09-19T09:42:36;18.30;99.90
16408;DHT22;8313;49.894;8.084;2023-09-19T09:45:24;18.30;99.90
16408;DHT22;8313;49.894;8.084;2023-09-19T09:48:00;18.50;99.90
16408;DHT22;8313;49.894;8.084;2023-09-19T09:50:33;18.50;99.90
16408;DHT22;8313;49.894;8.084;2023-09-19T09:53:26;18.70;99.90
16408;DHT22;8313;49.894;8.084;2023-09-19T09:58:26;18.80;99.90
16408;DHT22;8313;49.894;8.084;2023-09-19T10:00:56;19.00;99.90
16408;DHT22;8313;49.894;8.084;2023-09-19T10:03:37;19.10;99.90
16408;DHT22;8313;49.894;8.084;2023-09-19T10:06:12;19.10;99.90
16408;DHT22;8313;49.894;8.084;2023-09-19T10:11:32;19.10;99.90
16408;DHT22;8313;49.894;8.084;2023-09-19T10:14:00;19.50;99.90
16408;DHT22;8313;49.894;8.084;2023-09-19T10:16:32;19.50;99.90
16408;DHT22;8313;49.894;8.084;2023-09-19T10:19:02;19.60;99.90
16408;DHT22;8313;49.894;8.084;2023-09-19T10:21:30;19.70;99.90
16408;DHT22;8313;49.894;8.084;2023-09-19T10:23:58;19.70;99.90
16408;DHT22;8313;49.894;8.084;2023-09-19T10:26:26;19.90;99.90
16408;DHT22;8313;49.894;8.084;2023-09-19T10:28:57;19.90;99.90
16408;DHT22;8313;49.894;8.084;2023-09-19T10:31:27;20.00;99.90
16408;DHT22;8313;49.894;8.084;2023-09-19T10:33:55;20.10;99.90
16408;DHT22;8313;49.894;8.084;2023-09-19T10:36:24;20.30;99.90
16408;DHT22;8313;49.894;8.084;2023-09-19T10:38:53;20.50;99.90
16408;DHT22;8313;49.894;8.084;2023-09-19T10:41:21;20.40;99.90
16408;DHT22;8313;49.894;8.084;2023-09-19T10:43:48;20.60;99.90
16408;DHT22;8313;49.894;8.084;2023-09-19T10:46:14;20.60;99.90
16408;DHT22;8313;49.894;8.084;2023-09-19T10:48:41;20.60;99.90
16408;DHT22;8313;49.894;8.084;2023-09-19T10:51:18;20.70;99.90
16408;DHT22;8313;49.894;8.084;2023-09-19T10:53:51;20.70;99.90
16408;DHT22;8313;49.894;8.084;2023-09-19T10:56:32;20.80;99.90
16408;DHT22;8313;49.894;8.084;2023-09-19T10:59:12;20.80;99.90
16408;DHT22;8313;49.894;8.084;2023-09-19T11:01:48;20.80;99.90
16408;DHT22;8313;49.894;8.084;2023-09-19T11:07:01;21.00;99.90
16408;DHT22;8313;49.894;8.084;2023-09-19T11:15:07;21.40;99.90
16408;DHT22;8313;49.894;8.084;2023-09-19T11:17:38;21.20;99.90
16408;DHT22;8313;49.894;8.084;2023-09-19T11:41:41;22.10;99.90
16408;DHT22;8313;49.894;8.084;2023-09-19T11:49:16;22.20;99.90
16408;DHT22;8313;49.894;8.084;2023-09-19T11:51:46;22.30;99.90
16408;DHT22;8313;49.894;8.084;2023-09-19T11:54:14;22.40;99.90
16408;DHT22;8313;49.894;8.084;2023-09-19T11:56:56;22.40;99.90
16408;DHT22;8313;49.894;8.084;2023-09-19T11:59:31;22.60;99.90
16408;DHT22;8313;49.894;8.084;2023-09-19T12:02:01;22.60;99.90
16408;DHT22;8313;49.894;8.084;2023-09-19T12:04:41;22.60;99.80
16408;DHT22;8313;49.894;8.084;2023-09-19T12:07:13;22.70;99.60
16408;DHT22;8313;49.894;8.084;2023-09-19T12:12:19;22.80;99.00
16408;DHT22;8313;49.894;8.084;2023-09-19T12:14:49;22.90;99.80
16408;DHT22;8313;49.894;8.084;2023-09-19T12:17:16;22.90;99.90
16408;DHT22;8313;49.894;8.084;2023-09-19T12:19:53;23.00;99.10
16408;DHT22;8313;49.894;8.084;2023-09-19T12:22:19;23.00;98.70
16408;DHT22;8313;49.894;8.084;2023-09-19T12:24:48;23.00;98.90
16408;DHT22;8313;49.894;8.084;2023-09-19T12:27:16;23.00;99.20
16408;DHT22;8313;49.894;8.084;2023-09-19T12:29:43;23.10;99.90
16408;DHT22;8313;49.894;8.084;2023-09-19T12:32:09;23.20;99.20
16408;DHT22;8313;49.894;8.084;2023-09-19T12:34:36;23.30;99.60
16408;DHT22;8313;49.894;8.084;2023-09-19T12:37:16;23.20;99.90
16408;DHT22;8313;49.894;8.084;2023-09-19T12:39:51;23.40;99.90
16408;DHT22;8313;49.894;8.084;2023-09-19T12:42:24;23.50;99.90
16408;DHT22;8313;49.894;8.084;2023-09-19T12:44:54;23.70;98.50
16408;DHT22;8313;49.894;8.084;2023-09-19T12:47:24;23.60;98.30
16408;DHT22;8313;49.894;8.084;2023-09-19T12:55:29;23.60;99.20
16408;DHT22;8313;49.894;8.084;2023-09-19T12:58:13;23.70;99.10
16408;DHT22;8313;49.894;8.084;2023-09-19T13:00:45;23.80;98.70
16408;DHT22;8313;49.894;8.084;2023-09-19T13:03:15;23.80;98.60
16408;DHT22;8313;49.894;8.084;2023-09-19T13:05:51;23.90;97.90
16408;DHT22;8313;49.894;8.084;2023-09-19T13:08:23;23.90;98.10
16408;DHT22;8313;49.894;8.084;2023-09-19T13:11:04;23.90;98.60
16408;DHT22;8313;49.894;8.084;2023-09-19T13:13:45;23.80;98.30
16408;DHT22;8313;49.894;8.084;2023-09-19T13:16:14;24.00;96.90
16408;DHT22;8313;49.894;8.084;2023-09-19T13:18:48;23.90;97.90
16408;DHT22;8313;49.894;8.084;2023-09-19T13:21:17;24.00;96.60
16408;DHT22;8313;49.894;8.084;2023-09-19T13:23:54;24.00;96.90
16408;DHT22;8313;49.894;8.084;2023-09-19T13:26:25;24.10;97.10
16408;DHT22;8313;49.894;8.084;2023-09-19T13:28:51;24.10;97.00
16408;DHT22;8313;49.894;8.084;2023-09-19T13:31:17;24.10;97.10
16408;DHT22;8313;49.894;8.084;2023-09-19T13:33:44;23.90;96.00
16408;DHT22;8313;49.894;8.084;2023-09-19T13:36:13;23.80;95.70
16408;DHT22;8313;49.894;8.084;2023-09-19T13:38:40;23.80;95.40
16408;DHT22;8313;49.894;8.084;2023-09-19T13:41:11;23.60;96.40
16408;DHT22;8313;49.894;8.084;2023-09-19T13:43:37;23.70;96.60
16408;DHT22;8313;49.894;8.084;2023-09-19T13:46:05;23.80;96.50
16408;DHT22;8313;49.894;8.084;2023-09-19T13:48:33;23.80;96.20
16408;DHT22;8313;49.894;8.084;2023-09-19T13:51:02;23.80;95.70
16408;DHT22;8313;49.894;8.084;2023-09-19T13:53:29;23.70;95.90
16408;DHT22;8313;49.894;8.084;2023-09-19T13:55:54;23.80;96.50
16408;DHT22;8313;49.894;8.084;2023-09-19T13:58:20;23.90;95.80
16408;DHT22;8313;49.894;8.084;2023-09-19T14:00:48;23.80;95.70
16408;DHT22;8313;49.894;8.084;2023-09-19T14:03:14;23.70;95.60
16408;DHT22;8313;49.894;8.084;2023-09-19T14:05:40;23.60;95.00
16408;DHT22;8313;49.894;8.084;2023-09-19T14:08:07;23.30;94.70
16408;DHT22;8313;49.894;8.084;2023-09-19T14:10:32;23.20;95.50
16408;DHT22;8313;49.894;8.084;2023-09-19T14:12:58;23.10;95.20
16408;DHT22;8313;49.894;8.084;2023-09-19T14:15:25;23.10;94.80
16408;DHT22;8313;49.894;8.084;2023-09-19T14:17:56;23.00;95.40
16408;DHT22;8313;49.894;8.084;2023-09-19T14:20:22;23.10;95.60
16408;DHT22;8313;49.894;8.084;2023-09-19T14:22:48;23.20;96.20
16408;DHT22;8313;49.894;8.084;2023-09-19T14:25:14;23.20;96.10
16408;DHT22;8313;49.894;8.084;2023-09-19T14:27:40;23.20;96.10
16408;DHT22;8313;49.894;8.084;2023-09-19T14:30:07;23.20;96.40
16408;DHT22;8313;49.894;8.084;2023-09-19T14:32:33;23.30;96.40
16408;DHT22;8313;49.894;8.084;2023-09-19T14:34:59;23.30;96.50
16408;DHT22;8313;49.894;8.084;2023-09-19T14:37:24;23.40;96.60
16408;DHT22;8313;49.894;8.084;2023-09-19T14:39:50;23.50;96.40
16408;DHT22;8313;49.894;8.084;2023-09-19T14:42:16;23.50;96.00
16408;DHT22;8313;49.894;8.084;2023-09-19T14:44:43;23.60;96.70
16408;DHT22;8313;49.894;8.084;2023-09-19T14:47:09;23.70;96.40
16408;DHT22;8313;49.894;8.084;2023-09-19T14:49:39;23.70;96.10
16408;DHT22;8313;49.894;8.084;2023-09-19T14:52:09;23.70;96.30
16408;DHT22;8313;49.894;8.084;2023-09-19T14:54:35;23.70;95.40
16408;DHT22;8313;49.894;8.084;2023-09-19T14:57:03;23.60;95.90
16408;DHT22;8313;49.894;8.084;2023-09-19T14:59:33;23.50;96.20
16408;DHT22;8313;49.894;8.084;2023-09-19T15:01:59;23.50;96.40
16408;DHT22;8313;49.894;8.084;2023-09-19T15:04:27;23.60;96.70
16408;DHT22;8313;49.894;8.084;2023-09-19T15:06:53;23.60;97.00
16408;DHT22;8313;49.894;8.084;2023-09-19T15:09:23;23.70;96.80
16408;DHT22;8313;49.894;8.084;2023-09-19T15:11:55;23.80;96.70
16408;DHT22;8313;49.894;8.084;2023-09-19T15:14:24;23.90;97.00
16408;DHT22;8313;49.894;8.084;2023-09-19T15:16:50;23.90;96.90
16408;DHT22;8313;49.894;8.084;2023-09-19T15:19:16;23.80;96.50
16408;DHT22;8313;49.894;8.084;2023-09-19T15:21:43;23.70;96.40
16408;DHT22;8313;49.894;8.084;2023-09-19T15:24:09;23.60;96.30
16408;DHT22;8313;49.894;8.084;2023-09-19T15:26:36;23.50;96.60
16408;DHT22;8313;49.894;8.084;2023-09-19T15:29:07;23.60;97.10
16408;DHT22;8313;49.894;8.084;2023-09-19T15:31:35;23.50;96.70
16408;DHT22;8313;49.894;8.084;2023-09-19T15:34:05;23.40;97.00
16408;DHT22;8313;49.894;8.084;2023-09-19T15:36:34;23.40;97.20
16408;DHT22;8313;49.894;8.084;2023-09-19T15:39:04;23.30;97.20
16408;DHT22;8313;49.894;8.084;2023-09-19T15:41:39;23.20;97.50
16408;DHT22;8313;49.894;8.084;2023-09-19T15:44:14;23.10;97.50
16408;DHT22;8313;49.894;8.084;2023-09-19T15:46:41;23.10;97.70
16408;DHT22;8313;49.894;8.084;2023-09-19T15:49:07;23.20;97.70
16408;DHT22;8313;49.894;8.084;2023-09-19T15:51:33;23.20;97.70
16408;DHT22;8313;49.894;8.084;2023-09-19T15:54:02;23.20;98.00
16408;DHT22;8313;49.894;8.084;2023-09-19T15:56:33;23.00;98.00
16408;DHT22;8313;49.894;8.084;2023-09-19T15:59:00;23.00;98.10
16408;DHT22;8313;49.894;8.084;2023-09-19T16:01:26;23.00;98.20
16408;DHT22;8313;49.894;8.084;2023-09-19T16:03:53;23.00;98.30
16408;DHT22;8313;49.894;8.084;2023-09-19T16:06:22;23.10;98.50
16408;DHT22;8313;49.894;8.084;2023-09-19T16:08:53;23.00;98.50
16408;DHT22;8313;49.894;8.084;2023-09-19T16:11:21;22.90;98.60
16408;DHT22;8313;49.894;8.084;2023-09-19T16:13:49;22.80;98.80
16408;DHT22;8313;49.894;8.084;2023-09-19T16:16:16;22.80;99.00
16408;DHT22;8313;49.894;8.084;2023-09-19T16:18:46;22.80;99.20
16408;DHT22;8313;49.894;8.084;2023-09-19T16:21:14;22.80;99.30
16408;DHT22;8313;49.894;8.084;2023-09-19T16:23:39;22.80;99.30
16408;DHT22;8313;49.894;8.084;2023-09-19T16:26:07;22.70;99.40
16408;DHT22;8313;49.894;8.084;2023-09-19T16:28:35;22.70;99.50
16408;DHT22;8313;49.894;8.084;2023-09-19T16:31:02;22.60;99.60
16408;DHT22;8313;49.894;8.084;2023-09-19T16:33:35;22.60;99.60
16408;DHT22;8313;49.894;8.084;2023-09-19T16:36:02;22.50;99.70
16408;DHT22;8313;49.894;8.084;2023-09-19T16:38:32;22.30;99.90
16408;DHT22;8313;49.894;8.084;2023-09-19T16:40:59;22.20;99.90
16408;DHT22;8313;49.894;8.084;2023-09-19T16:43:25;22.20;99.90
16408;DHT22;8313;49.894;8.084;2023-09-19T16:45:56;22.10;99.90
16408;DHT22;8313;49.894;8.084;2023-09-19T16:48:22;22.10;99.90
16408;DHT22;8313;49.894;8.084;2023-09-19T16:50:52;22.00;99.90
16408;DHT22;8313;49.894;8.084;2023-09-19T16:53:19;22.00;99.90
16408;DHT22;8313;49.894;8.084;2023-09-19T16:55:46;21.90;99.90
16408;DHT22;8313;49.894;8.084;2023-09-19T16:58:13;22.00;99.90